Descripción del Accidente ASN 02 MAY 2015 Boeing 737-330 D-ABEK - Katowice-Pyrzowice Airport (KTW)
ASN logo
 
 
Estado:Information verified through authorities or other official sources.
Fecha:sbado 2 mayo 2015
Hora:04:35
Tipo:Silhouette image of generic B733 model; specific model in this crash may look slightly different
Boeing 737-330
Operador:Lufthansa
Registración: D-ABEK
Numéro de série: 25414/2164
Año de Construcción: 1991-11-01 (23 years 6 months)
Motores: 2 CFMI CFM56-3B1
Tripulación:Fatalidades: 0 / Ocupantes:
Pasajeros:Fatalidades: 0 / Ocupantes:
Total:Fatalidades: 0 / Ocupantes:
Daños en la Aeronave: Considerable
Consecuencias: Repaired
Ubicación:Katowice-Pyrzowice Airport (KTW) (   Polonia)
Fase: Despegue (TOF)
Naturaleza:Vuelo Internacional Programado
Aeropuerto de Salida:Katowice-Pyrzowice Airport (KTW/EPKT), Polonia
Aeropuerto de Llegada:Frankfurt International Airport (FRA/EDDF), Alemania
Número de Vuelo:LH2403
Descripción:
A Boeing 737-330 operated by Lufthansa sustained substantial damage in a takeoff accident at Katowice-Pyrzowice Airport (KTW), Poland.
The aircraft was on the return leg of a flight from Frankfurt, Germany. The flight crew was cleared to taxy to runway 27 via taxiways E and F for departure. After entering the runway, the tail was behind the threshold lights.
Applying takeoff thrust, parts of asphalt were torn off, striking the left side of the horizontal stabilizer. Takeoff was continued with the crew unaware of the extent of damage. After landing serious damage to the tail was revealed.
None of the passengers and crew suffered any injuries.

The aircraft was repaired and test flown on May 16 before returning to service on May 17, 2015.

On July 5, 2014, a CRJ-701ER of Lufthansa was involved in an incident at the same airport when it landed on the new runway 27 which was still under construction at the time.

Fuentes:
» SCAAI 617/15

METAR Weather report:
04:30 UTC / 02:30 local time:
EPKT 020230Z 07002KT 4000 BR NSC 07/07 Q1006

05:00 UTC / 03:00 local time:
EPKT 020300Z 07003KT 2500 MIFG BR NSC 07/07 Q1006=


Fotos

Add your photo of this accident or aircraft

Map
This map shows the airport of departure and the intended destination of the flight. The line between the airports does not display the exact flight path.
Distance from Katowice-Pyrzowice Airport to Frankfurt International Airport as the crow flies is 745 km (465 miles).

This information is not presented as the Flight Safety Foundation or the Aviation Safety Network’s opinion as to the cause of the accident. It is preliminary and is based on the facts as they are known at this time.
languages: languages

Share

The Aviation Safety Network is an exclusive service provided by:
Quick Links:

CONNECT WITH US: FSF on social media FSF Facebook FSF Twitter FSF Youtube FSF LinkedIn FSF Instagram

©2023 Flight Safety Foundation

1920 Ballenger Av, 4th Fl.
Alexandria, Virginia 22314
www.FlightSafety.org